FW1347 Sea Isle City NJ US current weather conditions

sailwx.info

Wind from 120 at 6 knots gusting 17

Air temperature 10.0° C
Dewpoint 8.8° C

Last reported at 2019-Dec-11 02:02 UTC.
Time now 2019-Dec-11 02:25 UTC

Location: N 39°09' W 074°42'.
View on Google Maps.

See reports from other nearby stations

  
Tides and Currents Weather Stations Pressure Air Temp Water Temp Dewpoint Dewpoint Depression Visibility Wind Speed Wind Dir Waves Ship Positions
date/time (UTC)wind fromknots sea level pressurealtimeterstation pressurevisibilityair tempwater tempwave heightnotes
2019-Dec-11 02:02 120 6 gusting 17 10.0
2019-Dec-11 01:46 083 4 gusting 11 10.6
2019-Dec-11 01:31 071 6 gusting 14 11.1
2019-Dec-11 01:16 058 5 gusting 12 11.1
2019-Dec-11 01:01 070 3 gusting 7 11.1
2019-Dec-11 00:45 070 3 gusting 8 11.7
2019-Dec-11 00:30 089 5 gusting 12 11.7
2019-Dec-11 00:15 063 5 gusting 10 11.7
2019-Dec-11 00:00 093 4 gusting 8 11.7
2019-Dec-10 23:45 075 2 gusting 7 12.2
2019-Dec-10 23:30 082 2 gusting 4 12.2
2019-Dec-10 23:15 091 2 gusting 4 12.2
2019-Dec-10 23:00 092 2 gusting 5 12.2
2019-Dec-10 22:45 060 4 gusting 9 12.2
2019-Dec-10 22:30 095 7 gusting 20 12.2
2019-Dec-10 22:19 055 5 gusting 8 13.3
2019-Dec-10 22:04 053 6 gusting 12 13.3
2019-Dec-10 21:51 057 6 gusting 13 13.9
2019-Dec-10 21:32 067 3 gusting 7 14.4
2019-Dec-10 21:17 059 5 gusting 10 15.0
2019-Dec-10 21:03 052 5 gusting 9 15.0
2019-Dec-10 20:47 046 5 gusting 12 15.0
2019-Dec-10 20:31 062 7 gusting 12 15.0
2019-Dec-10 20:17 054 6 gusting 11 15.0
2019-Dec-10 20:02 054 6 gusting 13 15.0
2019-Dec-10 19:47 036 10 gusting 18 15.0
2019-Dec-10 19:31 058 7 gusting 15 15.6
2019-Dec-10 19:18 024 11 gusting 19 16.1
2019-Dec-10 19:01 006 5 gusting 12 14.4
2019-Dec-10 18:47 011 2 gusting 6 12.8
2019-Dec-10 18:32 328 3 gusting 8 12.8
2019-Dec-10 18:16 340 3 gusting 8 12.8
2019-Dec-10 18:03 058 3 gusting 7 12.8
2019-Dec-10 17:47 354 4 gusting 8 12.2
2019-Dec-10 17:31 330 6 gusting 10 12.8
2019-Dec-10 17:16 053 5 gusting 10 14.4
2019-Dec-10 17:01 024 6 gusting 12 14.4
2019-Dec-10 16:47 028 6 gusting 16 14.4
2019-Dec-10 16:31 035 7 gusting 13 14.4
2019-Dec-10 16:15 026 7 gusting 13 14.4
2019-Dec-10 16:02 030 6 gusting 13 13.9
2019-Dec-10 15:45 056 8 gusting 14 13.9
2019-Dec-10 15:31 003 7 gusting 15 14.4
2019-Dec-10 15:15 045 5 gusting 15 13.9
2019-Dec-10 15:00 042 6 gusting 14 14.4
2019-Dec-10 14:46 032 10 gusting 18 14.4
2019-Dec-10 14:31 029 12 gusting 18 14.4
2019-Dec-10 14:15 058 10 gusting 19 14.4
2019-Dec-10 14:00 039 10 gusting 15 13.9
2019-Dec-10 13:45 029 6 gusting 13 13.3
2019-Dec-10 13:31 005 7 gusting 14 13.3
2019-Dec-10 13:15 033 9 gusting 15 12.8
2019-Dec-10 13:00
2019-Dec-10 12:45
2019-Dec-10 12:17
2019-Dec-10 12:03
2019-Dec-10 11:47
2019-Dec-10 11:31
2019-Dec-10 11:16
2019-Dec-10 11:01
2019-Dec-10 10:47
2019-Dec-10 10:31
2019-Dec-10 10:15
2019-Dec-10 10:00
2019-Dec-10 09:45
2019-Dec-10 09:30
2019-Dec-10 09:16
2019-Dec-10 09:00
2019-Dec-10 08:45
2019-Dec-10 08:31
2019-Dec-10 08:16
2019-Dec-10 08:01 023 13 gusting 19 13.3
2019-Dec-10 07:46 047 6 gusting 14 13.9
2019-Dec-10 07:31 026 7 gusting 17 13.9
2019-Dec-10 07:16 023 10 gusting 18 13.9
2019-Dec-10 07:01 052 13 gusting 18 13.9
2019-Dec-10 06:46 336 10 gusting 17 13.9
2019-Dec-10 06:31 352 10 gusting 17 13.3
2019-Dec-10 06:16 018 10 gusting 15 13.9
2019-Dec-10 06:01 324 11 gusting 19 13.9
2019-Dec-10 05:46 038 10 gusting 18 14.4
2019-Dec-10 05:30 026 11 gusting 20 14.4
2019-Dec-10 05:16 046 10 gusting 16 14.4
2019-Dec-10 05:01 015 8 gusting 15 13.9
2019-Dec-10 04:45 025 7 gusting 14 13.9
2019-Dec-10 04:30 030 8 gusting 18 13.3
2019-Dec-10 04:15 013 8 gusting 15 12.8
2019-Dec-10 04:01 048 9 gusting 15 12.8
2019-Dec-10 03:45 018 7 gusting 14 12.2
2019-Dec-10 03:30 034 8 gusting 13 11.7
2019-Dec-10 03:15 025 6 gusting 12 11.7
2019-Dec-10 03:00 338 6 gusting 11 11.1
2019-Dec-10 02:45 040 7 gusting 13 11.1
2019-Dec-10 02:30 012 6 gusting 15 11.1
2019-Dec-10 02:15 008 8 gusting 14 11.1
2019-Dec-10 02:01 026 7 gusting 17 11.1
2019-Dec-10 01:45 350 6 gusting 16 11.1
2019-Dec-10 01:30 038 8 gusting 16 11.1
2019-Dec-10 01:15 009 11 gusting 16 11.1
2019-Dec-10 01:00 321 10 gusting 17 11.1
2019-Dec-10 00:45 352 11 gusting 17 10.6
2019-Dec-10 00:30 013 12 gusting 18 10.6
2019-Dec-10 00:15 338 11 gusting 19 10.6
2019-Dec-10 00:00 353 10 gusting 18 10.0
2019-Dec-09 23:46 338 8 gusting 17 10.0
2019-Dec-09 23:31 056 8 gusting 13 10.0
2019-Dec-09 23:16 326 7 gusting 14 10.0
2019-Dec-09 23:01 345 6 gusting 14 10.6
2019-Dec-09 22:46 042 8 gusting 13 10.6
2019-Dec-09 22:31 075 9 gusting 13 10.6
2019-Dec-09 22:16 055 7 gusting 13 10.0
2019-Dec-09 22:01 356 6 gusting 13 9.4
2019-Dec-09 21:46 345 5 gusting 9 8.9
2019-Dec-09 21:31 235 1 gusting 6 8.9
2019-Dec-09 21:16 274 5 gusting 7 8.9
2019-Dec-09 21:01 290 4 gusting 7 8.3
2019-Dec-09 20:46 277 0 gusting 5 8.9
2019-Dec-09 20:31 030 0 gusting 5 8.9
2019-Dec-09 20:16 295 0 gusting 3 8.9
2019-Dec-09 20:01 072 9.4
2019-Dec-09 19:45 072 10.0
2019-Dec-09 19:31 072 10.0
2019-Dec-09 19:15 070 0 gusting 6 10.0
2019-Dec-09 19:01 047 4 gusting 7 10.0
2019-Dec-09 18:45 066 2 gusting 10 10.6
2019-Dec-09 18:30 066 4 gusting 8 11.1
2019-Dec-09 18:16 083 2 gusting 8 11.7
2019-Dec-09 18:00 065 3 gusting 8 12.2
2019-Dec-09 17:46 015 5 gusting 10 11.7
2019-Dec-09 17:30 017 3 gusting 12 11.7
2019-Dec-09 17:15 322 4 gusting 10 11.7
2019-Dec-09 17:00 353 1 gusting 6 10.6
2019-Dec-09 16:46 359 3 gusting 6 10.6
2019-Dec-09 16:30 009 2 gusting 8 10.6
2019-Dec-09 16:15 341 5 gusting 10 12.2
2019-Dec-09 16:00 028 6 gusting 11 12.2
2019-Dec-09 15:45 032 6 gusting 12 12.2
2019-Dec-09 15:30 008 3 gusting 8 11.7
2019-Dec-09 15:15 017 5 gusting 12 11.7
2019-Dec-09 15:00 053 8 gusting 18 11.7
2019-Dec-09 14:45 057 6 gusting 15 11.7
2019-Dec-09 14:30 071 9 gusting 15 12.2
2019-Dec-09 14:15 029 12 gusting 19 12.2
2019-Dec-09 14:00 345 6 gusting 20 12.8
2019-Dec-09 13:48
2019-Dec-09 13:31 226 6 gusting 18 12.2
2019-Dec-09 13:17 220 4 gusting 11 11.1
2019-Dec-09 13:01
2019-Dec-09 12:46
2019-Dec-09 12:31
2019-Dec-09 12:16
2019-Dec-09 12:01
2019-Dec-09 11:45
2019-Dec-09 11:30
2019-Dec-09 11:15
2019-Dec-09 11:00 124 4 gusting 7 11.1
2019-Dec-09 10:45 122 3 gusting 7 10.6
2019-Dec-09 10:30
2019-Dec-09 10:15
2019-Dec-09 10:00
2019-Dec-09 09:46
2019-Dec-09 09:31
2019-Dec-09 09:17
2019-Dec-09 09:01 141 1 gusting 2 6.1
2019-Dec-09 08:46 131 0 gusting 3 6.7
2019-Dec-09 08:32 143 0 gusting 2 6.7
2019-Dec-09 08:01 140 0 gusting 2 6.7
2019-Dec-09 07:45 155 1 gusting 3 6.7
2019-Dec-09 07:30 134 0 gusting 1 6.7
2019-Dec-09 07:16 134 0 gusting 2 6.7
2019-Dec-09 07:00 123 0 gusting 2 7.2
2019-Dec-09 06:46 126 0 gusting 1 7.2
2019-Dec-09 06:30 123 7.2
2019-Dec-09 06:15 077 7.2
2019-Dec-09 06:00 077 7.2
2019-Dec-09 05:45 077 7.2
2019-Dec-09 05:30 191 7.8
2019-Dec-09 05:15 191 7.8
2019-Dec-09 05:00 191 8.3
2019-Dec-09 04:45 193 8.3
2019-Dec-09 04:30 193 7.8
2019-Dec-09 04:16 193 7.8
2019-Dec-09 04:02 193 0 gusting 1 7.8
2019-Dec-09 03:46 193 7.8
2019-Dec-09 03:32 174 0 gusting 1 7.8
2019-Dec-09 03:17 046 7.8
2019-Dec-09 03:01 045 7.8
2019-Dec-09 02:46 045 7.8
2019-Dec-09 02:31 045 7.8
2019-Dec-09 02:16 045 7.8
2019-Dec-09 02:02 302 1 gusting 5 7.8